Latest Weather Observations for Nhill Aerodrome

IDV60801

Issued at 5:32 pm EST Tuesday 17 May 2022 (issued every 10 minutes, with the page automatically refreshed every 10 minutes)

About weather observations | Map of weather stations | Latest weather observations for VIC | Other Formats
Station Details ID: 078015 Name: NHILL AERODROME Lat: -36.31 Lon: 141.65 Height: 138.9 m
Data from the previous 72 hours. | See also: Recent months at Nhill Aerodrome
Date/Time
EST
Temp
°C
App
Temp
°C
Dew
Point
°C
Rel
Hum
%
Delta-T
°C
Wind Press
QNH
hPa
Press
MSL
hPa
Rain since
9am
mm
Dir  Spd
km/h
Gust
km/h
Spd
kts
Gust
kts
17/05:30pm 12.2 7.1 7.7 74 2.2 W 24 39 13 21 1019.3 1019.4 0.2
17/05:00pm 13.0 8.9 7.9 71 2.5 WNW 19 28 10 15 1019.3 1019.4 0.0
17/04:30pm 13.6 7.3 7.6 67 3.0 WNW 30 39 16 21 1019.3 1019.4 0.0
17/04:00pm 13.9 9.4 8.5 70 2.7 WNW 22 30 12 16 1019.2 1019.3 0.0
17/03:30pm 12.4 7.6 8.9 79 1.8 WNW 24 37 13 20 1019.4 1019.5 0.0
17/03:00pm 13.4 7.2 7.8 69 2.8 WNW 30 37 16 20 1019.3 1019.4 0.0
17/02:30pm 14.6 9.4 7.2 61 3.7 WNW 24 39 13 21 1019.0 1019.1 0.0
17/02:00pm 14.1 9.1 8.1 67 3.0 WNW 24 33 13 18 1019.3 1019.4 0.0
17/01:30pm 14.0 8.6 7.8 66 3.1 W 26 33 14 18 1019.7 1019.8 0.0
17/01:00pm 12.6 8.6 9.1 79 1.8 W 20 28 11 15 1020.1 1020.2 0.0
17/12:30pm 12.6 8.5 8.5 76 2.1 WNW 20 26 11 14 1020.3 1020.4 0.0
17/12:00pm 13.2 8.9 7.9 70 2.6 WNW 20 30 11 16 1020.5 1020.6 0.0
17/11:30am 12.6 8.7 8.7 77 2.0 WNW 19 26 10 14 1021.0 1021.0 0.0
17/11:00am 10.8 6.8 8.9 88 0.9 WNW 20 28 11 15 1021.3 1021.3 0.0
17/10:30am 10.5 6.7 9.9 96 0.3 NW 20 28 11 15 1021.5 1021.5 0.0
17/10:00am 9.8 6.2 9.7 99 0.1 NW 19 24 10 13 1021.5 1021.5 0.0
17/09:30am 9.5 6.9 9.4 99 0.0 NNW 13 19 7 10 1021.4 1021.4 0.0
17/09:00am 8.6 5.8 8.5 99 0.0 WNW 13 17 7 9 1021.5 1021.5 1.8
17/08:30am 8.2 4.9 8.1 99 0.0 NW 15 20 8 11 1021.0 1021.0 1.8
17/08:00am 7.9 4.9 7.8 99 0.0 NW 13 17 7 9 1020.8 1020.8 1.8
17/07:30am 7.7 4.7 7.6 99 0.0 NW 13 17 7 9 1020.5 1020.6 1.8
17/07:00am 7.6 4.2 7.5 99 0.0 NW 15 20 8 11 1020.3 1020.4 1.8
17/06:30am 7.2 4.4 7.1 99 0.0 NNW 11 15 6 8 1019.9 1020.0 1.8
17/06:00am 7.0 3.8 6.7 98 0.1 NW 13 17 7 9 1019.7 1019.8 1.8
17/05:30am 6.9 3.3 6.6 98 0.1 NW 15 19 8 10 1019.5 1019.6 1.8
17/05:00am 7.0 3.8 6.7 98 0.1 NNW 13 15 7 8 1019.2 1019.3 1.8
17/04:30am 6.9 3.6 6.5 97 0.2 NNW 13 17 7 9 1019.0 1019.1 1.8
17/04:00am 7.0 3.7 6.6 97 0.2 NNW 13 15 7 8 1018.8 1018.9 1.8
17/03:30am 7.5 4.7 7.1 97 0.2 NNW 11 17 6 9 1018.6 1018.7 1.8
17/03:00am 8.1 5.1 7.7 97 0.2 NNW 13 19 7 10 1018.7 1018.8 1.8
17/02:30am 8.4 5.8 7.8 96 0.3 NNW 11 15 6 8 1018.8 1018.9 1.8
17/02:00am 8.3 5.6 7.5 95 0.4 NW 11 13 6 7 1018.7 1018.8 1.8
17/01:30am 9.0 6.1 8.1 94 0.4 NW 13 15 7 8 1018.6 1018.7 1.8
17/01:00am 9.1 6.6 8.0 93 0.5 WNW 11 13 6 7 1018.8 1018.9 1.8
17/12:30am 9.0 6.1 8.1 94 0.4 WNW 13 15 7 8 1018.7 1018.8 1.8
17/12:00am 8.7 6.5 7.8 94 0.4 NW 9 13 5 7 1018.5 1018.6 1.8
 
Date/Time
EST
Temp
°C
App
Temp
°C
Dew
Point
°C
Rel
Hum
%
Delta-T
°C
Wind Press
QNH
hPa
Press
MSL
hPa
Rain since
9am
mm
Dir  Spd
km/h
Gust
km/h
Spd
kts
Gust
kts
16/11:30pm 8.1 5.7 7.2 94 0.4 NW 9 11 5 6 1018.4 1018.5 1.8
16/11:00pm 7.5 4.6 6.4 93 0.5 NW 11 13 6 7 1018.5 1018.6 1.8
16/10:30pm 7.8 5.3 6.6 92 0.6 NW 9 11 5 6 1018.5 1018.6 1.8
16/10:00pm 8.2 5.8 6.8 91 0.7 WNW 9 13 5 7 1018.1 1018.2 1.8
16/09:30pm 8.3 5.4 6.6 89 0.8 NW 11 15 6 8 1017.9 1017.9 1.8
16/09:00pm 9.6 6.9 7.5 87 1.0 WNW 11 15 6 8 1017.8 1017.8 1.8
16/08:30pm 10.1 6.3 7.5 84 1.3 WNW 17 20 9 11 1017.6 1017.6 1.8
16/08:00pm 10.4 6.7 7.8 84 1.3 WNW 17 20 9 11 1017.4 1017.4 1.8
16/07:30pm 10.4 6.3 7.8 84 1.3 WNW 19 22 10 12 1017.2 1017.2 1.8
16/07:00pm 10.3 7.4 8.2 87 1.0 WNW 13 19 7 10 1016.7 1016.7 1.8
16/06:30pm 11.0 7.0 8.2 83 1.4 W 19 24 10 13 1016.3 1016.3 1.8
16/06:00pm 11.8 6.1 8.3 79 1.7 W 28 37 15 20 1016.2 1016.2 1.8
16/05:30pm 12.3 7.2 7.6 73 2.3 W 24 35 13 19 1016.0 1016.0 1.8
16/05:00pm 12.5 5.6 7.4 71 2.5 W 33 48 18 26 1015.7 1015.7 1.8
16/04:30pm 13.2 6.3 7.4 68 2.8 WNW 33 52 18 28 1015.2 1015.2 1.8
16/04:28pm 13.9 7.0 7.2 64 3.3 WNW 33 52 18 28 1015.2 1015.2 1.8
16/04:00pm 14.8 7.3 6.1 56 4.2 W 35 44 19 24 1014.9 1014.9 1.8
16/03:30pm 14.6 7.1 6.4 58 4.0 WNW 35 44 19 24 1014.8 1014.8 1.8
16/03:00pm 14.7 8.0 8.2 65 3.3 W 33 43 18 23 1014.6 1014.6 1.8
16/02:30pm 14.6 7.9 8.3 66 3.2 WNW 33 43 18 23 1014.5 1014.5 1.8
16/02:00pm 14.0 10.4 10.6 80 1.8 WNW 20 30 11 16 1014.5 1014.5 1.8
16/01:30pm 12.0 7.0 9.7 86 1.2 WNW 26 35 14 19 1014.7 1014.7 1.8
16/01:14pm 11.5 6.0 9.1 85 1.2 W 28 52 15 28 1015.1 1015.1 1.4
16/01:00pm 13.8 10.4 11.3 85 1.3 WNW 20 28 11 15 1014.8 1014.8 0.4
16/12:30pm 11.6 6.2 9.5 87 1.1 W 28 37 15 20 1015.5 1015.5 0.2
16/12:00pm 13.7 7.9 7.9 68 2.9 WNW 28 35 15 19 1015.2 1015.2 0.0
16/11:30am 14.2 9.4 9.0 71 2.7 WNW 24 33 13 18 1015.5 1015.5 0.0
16/11:00am 13.6 9.9 10.2 80 1.8 WNW 20 26 11 14 1015.8 1015.8 0.0
16/10:30am 13.1 9.1 10.3 83 1.5 WNW 22 33 12 18 1015.8 1015.8 0.0
16/10:00am 12.3 7.8 9.9 85 1.2 WNW 24 32 13 17 1015.7 1015.7 0.0
16/09:30am 12.2 8.6 10.4 89 0.9 WNW 20 30 11 16 1015.7 1015.7 0.0
16/09:00am 10.8 7.9 9.7 93 0.6 NW 15 20 8 11 1015.5 1015.5 0.8
16/08:30am 9.9 6.9 9.1 95 0.4 NW 15 17 8 9 1015.1 1015.1 0.8
16/08:00am 9.6 6.2 9.0 96 0.3 NNW 17 24 9 13 1014.6 1014.6 0.8
16/07:30am 9.1 6.3 8.6 97 0.2 NNW 13 17 7 9 1014.3 1014.3 0.8
16/07:00am 8.8 6.0 8.4 97 0.2 NNW 13 17 7 9 1014.2 1014.2 0.8
16/06:30am 8.5 5.5 7.9 96 0.3 NW 13 15 7 8 1013.8 1013.8 0.8
16/06:00am 9.0 6.2 8.4 96 0.3 NNW 13 17 7 9 1013.6 1013.6 0.8
16/05:30am 9.2 6.4 8.4 95 0.4 NNW 13 15 7 8 1013.4 1013.4 0.8
16/05:00am 9.5 7.0 8.4 93 0.5 NW 11 13 6 7 1013.3 1013.3 0.8
16/04:30am 9.9 7.2 9.1 95 0.4 NW 13 17 7 9 1013.3 1013.3 0.6
16/04:00am 10.0 6.6 9.1 94 0.4 NW 17 20 9 11 1012.9 1013.0 0.6
16/03:30am 9.9 6.8 9.0 94 0.4 NNW 15 19 8 10 1012.9 1013.0 0.4
16/03:00am 10.8 7.5 9.6 92 0.6 NW 17 20 9 11 1013.0 1013.1 0.4
16/02:30am 11.4 8.2 10.0 91 0.7 NW 17 20 9 11 1013.2 1013.2 0.4
16/02:00am 11.7 8.1 10.4 92 0.7 NW 20 28 11 15 1013.0 1013.1 0.4
16/01:30am 11.3 7.7 9.9 91 0.7 NW 19 22 10 12 1013.3 1013.3 0.4
16/01:00am 11.7 7.9 9.9 89 0.9 NW 20 28 11 15 1013.4 1013.4 0.4
16/12:30am 12.0 8.0 10.6 91 0.7 NW 22 28 12 15 1013.4 1013.4 0.4
16/12:00am 11.7 8.4 10.8 94 0.5 NW 19 22 10 12 1013.4 1013.4 0.4
 
Date/Time
EST
Temp
°C
App
Temp
°C
Dew
Point
°C
Rel
Hum
%
Delta-T
°C
Wind Press
QNH
hPa
Press
MSL
hPa
Rain since
9am
mm
Dir  Spd
km/h
Gust
km/h
Spd
kts
Gust
kts
15/11:30pm 11.4 8.4 10.6 95 0.4 NW 17 20 9 11 1013.3 1013.3 0.4
15/11:00pm 11.6 8.3 10.8 95 0.4 NW 19 24 10 13 1013.2 1013.2 0.4
15/10:30pm 12.1 8.7 11.2 94 0.5 NW 20 24 11 13 1013.0 1013.1 0.4
15/10:00pm 12.3 9.7 10.7 90 0.8 NW 15 19 8 10 1013.2 1013.2 0.4
15/09:30pm 12.4 9.8 10.8 90 0.8 NW 15 22 8 12 1012.8 1012.9 0.4
15/09:00pm 12.8 9.5 10.9 88 1.0 WNW 19 24 10 13 1012.6 1012.7 0.4
15/08:30pm 13.8 8.8 11.1 84 1.4 WNW 28 35 15 19 1012.2 1012.3 0.4
15/08:00pm 13.3 10.4 12.2 93 0.6 NW 19 26 10 14 1012.2 1012.3 0.4
15/07:30pm 12.7 9.3 11.4 92 0.7 NW 20 26 11 14 1011.9 1012.0 0.4
15/07:00pm 13.1 9.0 11.3 89 1.0 NW 24 30 13 16 1011.5 1011.5 0.4
15/06:30pm 13.1 8.9 11.2 88 1.0 NW 24 33 13 18 1011.4 1011.4 0.4
15/06:21pm 13.0 7.2 11.4 90 0.9 WNW 33 52 18 28 1011.5 1011.5 0.4
15/06:00pm 13.5 7.1 11.9 90 0.9 W 37 46 20 25 1011.5 1011.5 0.2
15/05:30pm 14.5 7.2 11.7 83 1.5 W 41 52 22 28 1011.0 1011.0 0.0
15/05:12pm 16.5 9.1 9.9 65 3.5 WNW 39 57 21 31 1010.4 1010.4 0.0
15/05:00pm 18.1 11.5 8.7 54 4.9 WNW 33 46 18 25 1010.1 1010.1 0.0
15/04:51pm 18.4 12.4 8.7 53 5.1 NW 30 48 16 26 1010.0 1010.0 0.0
15/04:30pm 18.8 12.2 8.7 52 5.3 NW 33 46 18 25 1009.5 1009.5 0.0
15/04:01pm 18.6 12.4 9.4 55 4.9 NW 32 50 17 27 1009.7 1009.7 0.0
15/04:00pm 18.6 12.1 9.1 54 5.0 NW 33 50 18 27 1009.6 1009.6 0.0
15/03:30pm 18.9 12.2 9.7 55 4.9 NW 35 48 19 26 1009.5 1009.5 0.0
15/03:11pm 18.4 11.9 10.5 60 4.3 NW 35 54 19 29 1009.7 1009.7 0.0
15/03:00pm 18.6 11.7 10.2 58 4.5 NW 37 54 20 29 1009.6 1009.6 0.0
15/02:57pm 18.4 12.2 10.0 58 4.5 NW 33 54 18 29 1009.6 1009.6 0.0
15/02:30pm 18.1 11.4 9.5 57 4.6 NW 35 52 19 28 1009.6 1009.6 0.0
15/02:00pm 18.2 11.3 9.0 55 4.8 NW 35 46 19 25 1010.0 1010.0 0.0
15/01:43pm 18.6 11.6 8.6 52 5.2 NW 35 56 19 30 1010.0 1010.0 0.0
15/01:30pm 18.2 11.3 9.0 55 4.8 NW 35 50 19 27 1010.2 1010.2 0.0
15/01:00pm 18.1 11.2 8.9 55 4.8 NW 35 48 19 26 1010.6 1010.6 0.0
15/12:30pm 18.0 11.7 9.6 58 4.5 NW 33 50 18 27 1011.2 1011.2 0.0
15/12:14pm 17.7 11.4 9.6 59 4.3 NW 33 52 18 28 1011.4 1011.4 0.0
15/12:00pm 17.4 9.9 9.3 59 4.3 NW 39 50 21 27 1011.6 1011.6 0.0
15/11:30am 17.9 11.1 10.8 63 3.8 NW 37 46 20 25 1012.1 1012.2 0.0
15/11:00am 16.9 10.4 10.5 66 3.4 NW 35 46 19 25 1012.5 1012.6 0.0
15/10:30am 16.2 10.9 11.4 73 2.6 NNW 30 37 16 20 1012.8 1012.9 0.0
15/10:00am 15.9 12.0 12.1 78 2.1 NW 24 33 13 18 1012.8 1012.9 0.0
15/09:30am 14.5 11.9 12.0 85 1.4 NW 17 24 9 13 1013.0 1013.1 0.0
15/09:00am 13.1 9.7 11.2 88 1.0 NW 20 28 11 15 1013.5 1013.5 0.0
15/08:30am 11.9 9.3 10.6 92 0.7 NNW 15 22 8 12 1013.3 1013.3 0.0
15/08:00am 10.7 8.2 9.6 93 0.6 NNW 13 19 7 10 1013.0 1013.1 0.0
15/07:30am 10.8 7.5 9.6 92 0.6 NNW 17 20 9 11 1012.8 1012.9 0.0
15/07:00am 11.1 8.6 9.7 91 0.7 NNW 13 20 7 11 1012.6 1012.7 0.0
15/06:30am 10.9 9.2 9.8 93 0.6 NNW 9 15 5 8 1012.5 1012.6 0.0
15/06:00am 11.0 8.9 9.8 92 0.6 NNW 11 15 6 8 1012.4 1012.5 0.0
15/05:30am 11.0 8.5 9.8 92 0.6 NNW 13 17 7 9 1012.5 1012.6 0.0
15/05:00am 11.4 9.1 10.3 93 0.6 NNW 13 17 7 9 1012.3 1012.4 0.0
15/04:30am 11.7 10.3 10.8 94 0.5 NNW 9 13 5 7 1012.5 1012.6 0.0
15/04:00am 11.2 9.6 10.1 93 0.6 N 9 13 5 7 1012.4 1012.5 0.0
15/03:30am 11.5 9.5 10.2 92 0.7 NNW 11 15 6 8 1012.5 1012.6 0.0
15/03:00am 11.8 10.3 10.5 92 0.7 N 9 11 5 6 1012.7 1012.8 0.0
15/02:30am 12.2 10.8 10.9 92 0.7 NNW 9 11 5 6 1012.7 1012.8 0.0
15/02:00am 12.1 10.8 11.2 94 0.5 NNW 9 13 5 7 1012.8 1012.9 0.0
15/01:30am 11.6 10.1 10.5 93 0.6 NW 9 13 5 7 1013.3 1013.3 0.0
15/01:00am 12.2 10.4 10.8 91 0.7 NNW 11 13 6 7 1013.4 1013.4 0.0
15/12:30am 13.3 11.3 11.4 88 1.0 NNW 13 17 7 9 1013.5 1013.5 0.0
15/12:00am 13.8 12.2 11.5 86 1.2 NNW 11 17 6 9 1013.3 1013.3 0.0
 
Date/Time
EST
Temp
°C
App
Temp
°C
Dew
Point
°C
Rel
Hum
%
Delta-T
°C
Wind Press
QNH
hPa
Press
MSL
hPa
Rain since
9am
mm
Dir  Spd
km/h
Gust
km/h
Spd
kts
Gust
kts
14/11:30pm 13.7 12.6 12.1 90 0.9 N 9 13 5 7 1013.3 1013.3 0.0
14/11:00pm 14.0 12.8 12.7 92 0.7 NNW 11 15 6 8 1013.3 1013.3 0.0
14/10:30pm 13.6 12.2 12.2 91 0.8 NNW 11 15 6 8 1013.5 1013.5 0.0
14/10:00pm 14.0 12.3 12.4 90 0.9 NNW 13 17 7 9 1013.6 1013.6 0.0
14/09:30pm 14.1 13.0 12.1 88 1.1 NNW 9 15 5 8 1013.4 1013.4 0.0
14/09:00pm 14.3 12.8 12.0 86 1.2 NNW 11 17 6 9 1013.3 1013.3 0.0
14/08:30pm 15.3 13.9 12.2 82 1.7 NNW 11 17 6 9 1013.0 1013.1 0.0
14/08:00pm 15.8 14.9 12.7 82 1.7 N 9 13 5 7 1012.9 1013.0 0.0
14/07:30pm 15.6 14.7 12.5 82 1.7 NNW 9 11 5 6 1012.5 1012.6 0.0
14/07:00pm 16.4 14.5 12.9 80 2.0 NNW 15 19 8 10 1012.4 1012.5 0.0
14/06:30pm 16.2 15.4 12.9 81 1.8 N 9 13 5 7 1012.0 1012.1 0.0
14/06:00pm 16.8 15.6 12.9 78 2.2 NNW 11 15 6 8 1011.5 1011.5 0.0

Other formats

Comma delimited format used in spreadsheet applications
http://www.bom.gov.au/fwo/IDV60801/IDV60801.94827.axf

JavaScript Object Notation format (JSON) in row-major order
http://www.bom.gov.au/fwo/IDV60801/IDV60801.94827.json

Data quality

Most of these data are generated automatically and are frequently updated. Quality checks on data are not normally performed. It is possible for incorrect values to appear. Refer to information at About Latest Weather Observations and please check the disclaimer before using these data.